Time;durP1;ratioP1;P1;durP2;ratioP2;P2;SDS_P1;SDS_P2;PMS_P1;PMS_P2;Temp;Humidity;BMP_temperature;BMP_pressure;BME280_temperature;BME280_humidity;BME280_pressure;Samples;Min_cycle;Max_cycle;Signal;HPM_P1;HPM_P2
2021/06/19 00:09:40;;;;;;;5.40;4.90;;;;;;;;;;20918340;28;20174;-64
2021/06/19 00:19:41;;;;;;;5.20;4.73;;;;;;;;;;20916982;28;20233;-65
2021/06/19 00:29:41;;;;;;;5.07;4.67;;;;;;;;;;20916533;28;20169;-58
2021/06/19 00:39:42;;;;;;;5.60;5.17;;;;;;;;;;20917472;28;20223;-58
2021/06/19 00:49:42;;;;;;;6.57;5.53;;;;;;;;;;20915714;28;20266;-58
2021/06/19 00:59:43;;;;;;;6.53;5.97;;;;;;;;;;20914753;28;20741;-58
2021/06/19 01:09:44;;;;;;;5.90;5.40;;;;;;;;;;20914274;28;20195;-58
2021/06/19 01:19:44;;;;;;;6.57;5.97;;;;;;;;;;20912705;28;20227;-60
2021/06/19 01:29:45;;;;;;;8.97;5.83;;;;;;;;;;20912627;28;20180;-57
2021/06/19 01:39:45;;;;;;;6.40;5.90;;;;;;;;;;20911612;28;20459;-58
2021/06/19 01:49:45;;;;;;;8.33;6.30;;;;;;;;;;20911361;28;20229;-58
2021/06/19 01:59:46;;;;;;;7.40;6.80;;;;;;;;;;20910422;28;20211;-64
2021/06/19 02:09:46;;;;;;;7.90;7.10;;;;;;;;;;20908091;28;20206;-60
2021/06/19 02:19:46;;;;;;;7.83;7.00;;;;;;;;;;20908888;28;20998;-57
2021/06/19 02:29:47;;;;;;;8.10;7.23;;;;;;;;;;20908861;28;20203;-62
2021/06/19 02:39:47;;;;;;;7.20;6.50;;;;;;;;;;20908050;28;20756;-58
2021/06/19 02:49:47;;;;;;;6.80;6.20;;;;;;;;;;20908137;28;20647;-60
2021/06/19 02:59:48;;;;;;;7.30;6.60;;;;;;;;;;20908941;28;20222;-66
2021/06/19 03:09:48;;;;;;;8.23;6.23;;;;;;;;;;20907290;28;20184;-67
2021/06/19 03:19:48;;;;;;;6.57;5.70;;;;;;;;;;20913249;28;20232;-62
2021/06/19 03:29:49;;;;;;;8.93;7.22;;;;;;;;;;20923261;28;20609;-62
2021/06/19 03:39:49;;;;;;;7.32;6.68;;;;;;;;;;20921218;28;20290;-61
2021/06/19 03:49:50;;;;;;;7.93;6.57;;;;;;;;;;20920448;28;20665;-58
2021/06/19 03:59:50;;;;;;;7.68;6.65;;;;;;;;;;20919353;28;20552;-60
2021/06/19 04:09:53;;;;;;;7.60;6.97;;;;;;;;;;20917795;28;20182;-60
2021/06/19 04:19:53;;;;;;;7.57;6.72;;;;;;;;;;20917654;28;20714;-59
2021/06/19 04:29:54;;;;;;;8.77;7.97;;;;;;;;;;20913505;28;20176;-63
2021/06/19 04:40:04;;;;;;;7.97;7.28;;;;;;;;;;20916145;28;20206;-59
2021/06/19 04:50:06;;;;;;;7.72;7.03;;;;;;;;;;20916005;28;20178;-60
2021/06/19 05:00:07;;;;;;;35.65;9.35;;;;;;;;;;20915231;28;20211;-61
2021/06/19 05:10:08;;;;;;;8.32;5.88;;;;;;;;;;20914369;28;20172;-61
2021/06/19 05:20:08;;;;;;;7.00;6.40;;;;;;;;;;20912588;28;20263;-60
2021/06/19 05:30:10;;;;;;;6.55;6.05;;;;;;;;;;20878902;28;20182;-64
2021/06/19 05:40:10;;;;;;;8.05;5.28;;;;;;;;;;20898204;28;20768;-64
2021/06/19 05:50:11;;;;;;;5.83;5.30;;;;;;;;;;20795746;28;20180;-69
2021/06/19 06:00:12;;;;;;;5.20;4.57;;;;;;;;;;20815521;28;20220;-61
2021/06/19 06:10:13;;;;;;;5.13;4.67;;;;;;;;;;20799240;28;20176;-58
2021/06/19 06:20:13;;;;;;;6.30;4.50;;;;;;;;;;20809593;28;20220;-59
2021/06/19 06:30:14;;;;;;;6.97;4.95;;;;;;;;;;20805942;28;20278;-58
2021/06/19 06:40:15;;;;;;;4.85;3.88;;;;;;;;;;20800016;28;20980;-62
2021/06/19 06:50:15;;;;;;;5.72;4.22;;;;;;;;;;20815179;28;20172;-65
2021/06/19 07:00:16;;;;;;;7.22;5.00;;;;;;;;;;20807753;28;20204;-65
2021/06/19 07:10:16;;;;;;;7.05;4.40;;;;;;;;;;20829301;28;20192;-61
2021/06/19 07:20:18;;;;;;;5.03;4.53;;;;;;;;;;20805257;28;20478;-65
2021/06/19 07:30:19;;;;;;;6.43;3.80;;;;;;;;;;20833426;28;20523;-67
2021/06/19 07:40:20;;;;;;;3.75;3.40;;;;;;;;;;20810482;28;20215;-60
2021/06/19 07:50:20;;;;;;;4.75;3.50;;;;;;;;;;20820431;28;20172;-57
2021/06/19 08:00:21;;;;;;;4.68;3.20;;;;;;;;;;20813352;28;20211;-58
2021/06/19 08:10:21;;;;;;;5.18;2.72;;;;;;;;;;20809632;28;20164;-57
2021/06/19 08:20:22;;;;;;;4.50;2.75;;;;;;;;;;20821916;28;20234;-57
2021/06/19 08:30:22;;;;;;;4.75;2.83;;;;;;;;;;20801993;28;20187;-65
2021/06/19 08:40:22;;;;;;;3.65;2.83;;;;;;;;;;20823220;28;20262;-57
2021/06/19 08:50:23;;;;;;;5.07;2.20;;;;;;;;;;20798980;28;20287;-64
2021/06/19 09:00:23;;;;;;;3.30;2.50;;;;;;;;;;20819028;28;20212;-58
2021/06/19 09:10:33;;;;;;;2.55;2.20;;;;;;;;;;20803334;28;20177;-58
2021/06/19 09:20:41;;;;;;;3.53;2.15;;;;;;;;;;20813267;28;20263;-56
2021/06/19 09:30:42;;;;;;;2.70;1.83;;;;;;;;;;20808417;28;20168;-58
2021/06/19 09:40:44;;;;;;;4.60;2.70;;;;;;;;;;20805663;28;20270;-62
2021/06/19 09:50:44;;;;;;;4.65;2.63;;;;;;;;;;20815437;28;20169;-64
2021/06/19 10:00:44;;;;;;;3.83;2.63;;;;;;;;;;20795448;28;20200;-59
2021/06/19 10:10:45;;;;;;;22.95;3.90;;;;;;;;;;20815866;28;20236;-64
2021/06/19 10:20:46;;;;;;;3.50;2.90;;;;;;;;;;20792089;28;20232;-56
2021/06/19 10:30:46;;;;;;;2.72;2.53;;;;;;;;;;20812283;28;20171;-60
2021/06/19 10:40:57;;;;;;;3.50;2.33;;;;;;;;;;20796064;28;20219;-57
2021/06/19 10:51:17;;;;;;;3.30;3.00;;;;;;;;;;20807560;28;20235;-56
2021/06/19 11:01:30;;;;;;;3.42;3.08;;;;;;;;;;20844555;28;20283;-59
2021/06/19 11:11:51;;;;;;;6.68;3.50;;;;;;;;;;20883375;28;20203;-57
2021/06/19 11:22:11;;;;;;;5.43;3.38;;;;;;;;;;20887070;28;20246;-57
2021/06/19 11:32:22;;;;;;;3.22;2.90;;;;;;;;;;20873849;28;20172;-60
2021/06/19 11:42:22;;;;;;;3.00;2.70;;;;;;;;;;20901807;28;20207;-66
2021/06/19 11:52:22;;;;;;;4.43;2.92;;;;;;;;;;20886363;28;20534;-62
2021/06/19 12:02:22;;;;;;;2.97;2.65;;;;;;;;;;20907785;28;20286;-59
2021/06/19 12:12:23;;;;;;;3.17;2.97;;;;;;;;;;20886371;28;20574;-58
2021/06/19 12:22:23;;;;;;;23.33;4.10;;;;;;;;;;20905305;28;20318;-69
2021/06/19 12:32:26;;;;;;;4.22;2.60;;;;;;;;;;20890471;28;20167;-58
2021/06/19 12:42:35;;;;;;;4.53;2.50;;;;;;;;;;20898571;28;20241;-58
2021/06/19 12:52:53;;;;;;;8.38;2.65;;;;;;;;;;20893360;28;20188;-58
2021/06/19 13:02:54;;;;;;;3.55;2.50;;;;;;;;;;20827339;28;20230;-62
2021/06/19 13:12:55;;;;;;;4.07;2.80;;;;;;;;;;20806930;28;20241;-60
2021/06/19 13:23:15;;;;;;;3.95;3.10;;;;;;;;;;20793266;28;20219;-58
2021/06/19 13:33:25;;;;;;;5.88;2.78;;;;;;;;;;20819449;28;20261;-58
2021/06/19 13:43:26;;;;;;;3.63;3.20;;;;;;;;;;20792971;28;20207;-60
2021/06/19 13:53:26;;;;;;;3.15;2.47;;;;;;;;;;20817215;28;20171;-58
2021/06/19 14:03:26;;;;;;;4.85;2.83;;;;;;;;;;20797340;28;20215;-62
2021/06/19 14:13:27;;;;;;;2.85;2.60;;;;;;;;;;20807662;28;20545;-61
2021/06/19 14:23:27;;;;;;;9.02;2.90;;;;;;;;;;20802836;28;20236;-58
2021/06/19 14:33:27;;;;;;;3.00;2.70;;;;;;;;;;20803056;28;20204;-64
2021/06/19 14:43:28;;;;;;;3.08;2.60;;;;;;;;;;20811016;28;20204;-65
2021/06/19 14:53:29;;;;;;;2.90;2.70;;;;;;;;;;20792134;28;20250;-58
2021/06/19 15:03:29;;;;;;;8.48;3.50;;;;;;;;;;20813012;28;20692;-58
2021/06/19 15:13:30;;;;;;;3.90;2.80;;;;;;;;;;20793836;28;20199;-57
2021/06/19 15:23:32;;;;;;;3.78;3.03;;;;;;;;;;20878683;28;20223;-60
2021/06/19 15:33:32;;;;;;;4.55;2.85;;;;;;;;;;20892864;28;20176;-59
2021/06/19 15:43:32;;;;;;;2.97;2.78;;;;;;;;;;20902925;28;20294;-57
2021/06/19 15:53:33;;;;;;;4.13;3.03;;;;;;;;;;20897110;28;20179;-58
2021/06/19 16:03:33;;;;;;;6.30;3.50;;;;;;;;;;20893750;28;20245;-57
2021/06/19 16:13:33;;;;;;;3.40;3.20;;;;;;;;;;20904132;28;20850;-58
2021/06/19 16:23:34;;;;;;;3.40;3.10;;;;;;;;;;20879581;28;20242;-58
2021/06/19 16:33:34;;;;;;;3.80;3.45;;;;;;;;;;20902272;28;20271;-58
2021/06/19 16:43:34;;;;;;;4.03;2.95;;;;;;;;;;20880932;28;20211;-68
2021/06/19 16:53:35;;;;;;;2.88;2.58;;;;;;;;;;20903401;28;20171;-63
2021/06/19 17:03:35;;;;;;;3.25;2.95;;;;;;;;;;20885192;28;20211;-67
2021/06/19 17:13:36;;;;;;;6.10;3.70;;;;;;;;;;20894653;28;20167;-60
2021/06/19 17:23:37;;;;;;;3.80;3.10;;;;;;;;;;20889922;28;20796;-60
2021/06/19 17:33:37;;;;;;;2.72;2.53;;;;;;;;;;20887211;28;20286;-65
2021/06/19 17:43:37;;;;;;;6.38;2.63;;;;;;;;;;20896600;28;20215;-70
2021/06/19 17:53:38;;;;;;;8.38;3.08;;;;;;;;;;20877990;28;20245;-61
2021/06/19 18:03:39;;;;;;;3.75;3.40;;;;;;;;;;20897500;28;20287;-60
2021/06/19 18:13:39;;;;;;;3.10;2.80;;;;;;;;;;20874639;28;20171;-64
2021/06/19 18:23:40;;;;;;;6.45;2.90;;;;;;;;;;20897073;28;20280;-64
2021/06/19 18:33:40;;;;;;;4.65;2.88;;;;;;;;;;20877897;28;20172;-61
2021/06/19 18:43:41;;;;;;;3.33;3.03;;;;;;;;;;20890020;28;20218;-64
2021/06/19 18:53:41;;;;;;;3.90;3.40;;;;;;;;;;20899486;28;20162;-69
2021/06/19 19:03:42;;;;;;;5.10;3.85;;;;;;;;;;20900543;28;20268;-59
2021/06/19 19:13:43;;;;;;;5.13;4.50;;;;;;;;;;20910271;28;20191;-61
2021/06/19 19:23:44;;;;;;;4.57;3.83;;;;;;;;;;20889186;28;20241;-56
2021/06/19 19:33:44;;;;;;;5.17;3.80;;;;;;;;;;20910014;28;20160;-57
2021/06/19 19:43:46;;;;;;;4.40;3.87;;;;;;;;;;20886801;28;20203;-55
2021/06/19 19:53:46;;;;;;;5.53;4.00;;;;;;;;;;20908885;28;20267;-56
2021/06/19 20:03:46;;;;;;;5.20;4.60;;;;;;;;;;20912970;28;20286;-69
2021/06/19 20:13:47;;;;;;;4.40;4.07;;;;;;;;;;20914200;28;20242;-61
2021/06/19 20:23:47;;;;;;;4.30;3.90;;;;;;;;;;20914802;28;20710;-67
2021/06/19 20:33:48;;;;;;;4.63;4.13;;;;;;;;;;20916918;28;20180;-66
2021/06/19 20:43:48;;;;;;;5.50;4.17;;;;;;;;;;20916486;28;20318;-61
2021/06/19 20:53:49;;;;;;;5.07;4.67;;;;;;;;;;20880920;28;20184;-65
2021/06/19 21:03:50;;;;;;;6.80;4.80;;;;;;;;;;20865929;28;20292;-64
2021/06/19 21:13:50;;;;;;;6.00;5.40;;;;;;;;;;20856031;28;20205;-58
2021/06/19 21:23:52;;;;;;;6.20;5.63;;;;;;;;;;20801128;28;20236;-57
2021/06/19 21:33:53;;;;;;;7.13;6.43;;;;;;;;;;20789408;28;21081;-62
2021/06/19 21:43:53;;;;;;;7.47;6.70;;;;;;;;;;20798390;28;20215;-60
2021/06/19 21:53:54;;;;;;;8.17;7.40;;;;;;;;;;20779794;28;20193;-57
2021/06/19 22:03:54;;;;;;;7.50;6.80;;;;;;;;;;20819956;28;20224;-58
2021/06/19 22:13:56;;;;;;;7.07;6.47;;;;;;;;;;20773263;28;20282;-60
2021/06/19 22:23:57;;;;;;;8.30;7.50;;;;;;;;;;20875379;28;20277;-66
2021/06/19 22:33:57;;;;;;;7.27;6.67;;;;;;;;;;20859006;28;20187;-63
2021/06/19 22:43:58;;;;;;;7.70;7.00;;;;;;;;;;20873649;28;20583;-57
2021/06/19 22:53:58;;;;;;;7.90;6.20;;;;;;;;;;20866134;28;20191;-58
2021/06/19 23:03:58;;;;;;;5.63;5.20;;;;;;;;;;20818889;28;20223;-58
2021/06/19 23:13:59;;;;;;;6.07;5.47;;;;;;;;;;20792465;28;20187;-62
2021/06/19 23:23:59;;;;;;;6.00;5.50;;;;;;;;;;20773376;28;20254;-66
2021/06/19 23:34:00;;;;;;;5.43;5.03;;;;;;;;;;20797369;28;20188;-61
2021/06/19 23:44:00;;;;;;;6.17;5.57;;;;;;;;;;20785155;28;20222;-68
2021/06/19 23:54:00;;;;;;;6.77;5.40;;;;;;;;;;20809052;28;20192;-64
